Ginys del Meteocat
Campanya meteocatpedra

Dades de l'estació automàtica la Quar

?
?
Resum diari 23:00 TU
Dades diàries de l'estació meteorològica
Temperatura mitjana 9.7 °C
Temperatura màxima 14.4 °C 13:00 TU
Temperatura mínima 7.7 °C 2:13 TU
Humitat relativa mitjana 95%
Precipitació acumulada 0.0 mm
Ratxa màxima del vent (10 m) 16.2 km/h - 39º 22:32 TU
Pressió atmosfèrica mitjana 1018.0 hPa

El tram horari està expressat en Temps Universal (TU). Cal sumar una hora en horari d'hivern i dues en horari d'estiu per passar a l'hora oficial.

la Quar

Metadades estació meteorol´gica
Municipi La Quar
Comarca Berguedà
Altitud 873 m
Data alta 13.03.1996
Estat actual Operativa
Dades de període
Període
TU
TM
°C
TX
°C
TN
°C
HRM
%
PPT
mm
VVM (10 m)
km/h
DVM (10 m)
graus
VVX (10 m)
km/h
PM
hPa
00:00 - 00:30 8.5 8.9 8.4 99 0.0 2.2 12 5.4 1015.4
00:30 - 01:00 8.3 8.5 8.2 100 0.0 1.4 330 3.6 1015.6
01:00 - 01:30 8.2 8.3 8.1 100 0.0 2.2 318 5.4 1015.7
01:30 - 02:00 8.2 8.6 8.0 100 0.0 1.4 302 4.3 1015.7
02:00 - 02:30 8.0 8.3 7.7 100 0.0 2.5 8 5.4 1015.6
02:30 - 03:00 8.0 8.3 7.8 100 0.0 2.9 14 6.1 1015.7
03:00 - 03:30 8.1 8.3 7.8 100 0.0 1.8 1 5.8 1016.3
03:30 - 04:00 7.9 8.1 7.8 100 0.0 2.5 9 7.6 1016.2
04:00 - 04:30 7.8 8.0 7.8 100 0.0 3.6 27 8.6 1016.5
04:30 - 05:00 8.2 8.3 8.0 100 0.0 3.6 30 9.7 1016.3
05:00 - 05:30 8.2 8.4 8.1 100 0.0 3.2 37 9.0 1016.6
05:30 - 06:00 8.1 8.3 8.0 100 0.0 2.5 47 7.9 1016.9
06:00 - 06:30 8.0 8.2 7.9 100 0.0 2.2 45 6.1 1017.2
06:30 - 07:00 8.0 8.2 7.9 100 0.0 1.8 53 7.2 1017.5
07:00 - 07:30 8.1 8.5 7.9 100 0.0 4.3 45 11.5 1017.7
07:30 - 08:00 8.8 9.1 8.5 100 0.0 6.1 50 13.7 1017.8
08:00 - 08:30 8.8 9.0 8.7 100 0.0 7.9 45 13.7 1018.0
08:30 - 09:00 9.0 9.6 8.8 100 0.0 4.3 52 11.5 1018.3
09:00 - 09:30 9.7 10.1 9.5 100 0.0 4.7 57 10.1 1018.7
09:30 - 10:00 10.1 10.4 9.8 100 0.0 4.3 58 9.4 1018.9
10:00 - 10:30 10.6 11.0 10.2 98 0.0 4.3 46 10.4 1018.7
10:30 - 11:00 10.5 10.8 10.2 97 0.0 4.0 35 11.5 1018.4
11:00 - 11:30 11.9 12.7 10.8 91 0.0 2.5 152 7.9 1017.8
11:30 - 12:00 12.2 12.5 11.9 92 0.0 2.2 209 9.0 1017.9
12:00 - 12:30 12.6 13.7 12.3 89 0.0 1.8 224 11.5 1017.5
12:30 - 13:00 13.6 14.3 13.2 79 0.0 4.0 192 14.8 1016.8
13:00 - 13:30 13.4 14.4 12.8 77 0.0 2.9 187 8.6 1016.9
13:30 - 14:00 12.8 13.0 12.6 82 0.0 4.3 209 12.2 1017.4
14:00 - 14:30 12.8 13.3 12.5 83 0.0 4.7 227 10.4 1017.5
14:30 - 15:00 13.0 13.2 12.8 79 0.0 3.6 205 10.4 1017.4
15:00 - 15:30 12.4 12.8 12.1 83 0.0 2.5 188 7.6 1017.6
15:30 - 16:00 12.4 12.7 12.0 81 0.0 2.2 224 6.8 1017.6
16:00 - 16:30 11.5 12.0 11.2 87 0.0 0.7 209 5.4 1018.2
16:30 - 17:00 10.8 11.1 10.5 91 0.0 1.4 259 3.2 1018.4
17:00 - 17:30 10.2 10.5 10.0 93 0.0 0.7 309 3.2 1019.1
17:30 - 18:00 9.7 9.9 9.5 95 0.0 2.5 360 5.4 1019.4
18:00 - 18:30 9.2 9.5 9.1 95 0.0 1.4 349 4.7 1019.7
18:30 - 19:00 9.0 9.1 8.8 94 0.0 2.9 351 6.1 1019.8
19:00 - 19:30 8.8 8.9 8.7 93 0.0 2.5 356 6.1 1020.1
19:30 - 20:00 8.6 8.8 8.2 95 0.0 1.4 9 6.1 1020.2
20:00 - 20:30 8.9 9.1 8.7 97 0.0 1.4 355 5.0 1020.4
20:30 - 21:00 9.0 9.1 8.7 97 0.0 4.3 40 10.8 1020.1
21:00 - 21:30 8.6 8.7 8.5 99 0.0 4.0 44 10.1 1020.3
21:30 - 22:00 8.8 9.0 8.7 99 0.0 7.2 49 14.0 1020.3
22:00 - 22:30 8.9 9.0 8.7 100 0.0 9.4 55 15.8 1020.5
22:30 - 23:00 8.6 8.7 8.4 100 0.0 8.6 48 16.2 1020.3
23:00 - 23:30 8.2 8.4 8.1 100 0.0 6.8 43 11.9 1020.2

Les dades en taronja només han passat un control de qualitat automàtic. Resta pendent la seva validació definitiva.